Terminal Aerodrome Forecast
Issued by NWS

Home | Current Version | Previous Version | Text Only | Print | Product List | Glossary Off
Versions: 1 2 3 4 5 6 7 8 9 10 11 12 13 14 15 16 17 18 19

000
FTUS43 KFGF 231646 AAC
TAFBJI
TAF AMD
KBJI 231646Z 2317/2412 07012KT P6SM OVC040
      TEMPO 2317/2318 2SM -SN BKN024
     FM231800 09013KT P6SM OVC024
     FM232200 09014G22KT P6SM OVC030
     FM240600 10013G20KT P6SM OVC010=

USA.gov is the U.S. government's official web portal to all federal, state and local government web resources and services.